This demonstration page uses our WeatherBlox Daily Observations layout. Learn more.

39.92423, -83.80882

Hourly Observations for April 26, 2017

Temp ( °F °C ) Dew Point ( °F °C ) Humidity (%) Winds ( mph kmh ) Pressure ( in mb ) Visibility ( mi km ) Precip ( " mm )
12:56 am 00:56 Clear 59 15 54 12.2 83 83 SSE 8 13 29.71 1006 10 16.0934 0 0
1:56 am 01:56 Clear 57 13.9 53 11.7 87 87 ESE 8 13 29.71 1006 10 16.0934 0 0
2:56 am 02:56 Clear 57 13.9 54 12.2 90 90 SE 7 11 29.7 1006 10 16.0934 0 0
3:56 am 03:56 Clear 57 13.9 53 11.7 87 87 SE 6 9 29.7 1006 10 16.0934 0 0
4:56 am 04:56 Mostly Clear 55 12.8 53 11.7 93 93 SSE 7 11 29.71 1006 10 16.0934 0 0
5:56 am 05:56 Clear 54 12.2 52 11.1 93 93 SSE 7 11 29.71 1006 10 16.0934 0 0
6:56 am 06:56 Sunny 54 12.2 52 11.1 93 93 SE 7 11 29.72 1006 9 14.48406 0 0
7:56 am 07:56 Sunny 59 15 55 12.8 87 87 SSE 9 15 29.73 1007 8 12.87472 0 0
8:56 am 08:56 Sunny 65 18.3 57 13.9 76 76 S 12 19 29.71 1006 10 16.0934 0 0
9:56 am 09:56 Sunny 68 20 57 13.9 68 68 S 9 15 29.72 1007 10 16.0934 0 0
10:56 am 10:56 Sunny 72 22.2 57 13.9 59 59 SSW 9 15 29.7 1006 10 16.0934 0 0
11:56 am 11:56 Sunny 74 23.3 58 14.4 57 57 SSE 12 19 29.68 1005 10 16.0934 0 0
12:56 pm 12:56 Sunny 77 25 56 13.3 48 48 S 16 26 29.65 1004 10 16.0934 0 0
1:56 pm 13:56 Sunny 79 26.1 55 12.8 44 44 S 14 22 29.64 1004 10 16.0934 0 0
2:56 pm 14:56 Sunny 81 27.2 56 13.3 42 42 S 15 24 29.61 1003 10 16.0934 0 0
3:56 pm 15:56 Sunny 81 27.2 56 13.3 42 42 S 17 28 29.6 1002 10 16.0934 0 0
4:56 pm 16:56 Sunny 82 27.8 56 13.3 41 41 S 14 22 29.59 1002 10 16.0934 0 0
5:56 pm 17:56 Sunny 82 27.8 55 12.8 40 40 SSW 12 19 29.58 1002 10 16.0934 0 0
6:56 pm 18:56 Sunny 80 26.7 52 11.1 38 38 S 10 17 29.58 1002 10 16.0934 0 0
7:56 pm 19:56 Sunny 77 25 50 10 39 39 S 9 15 29.58 1002 10 16.0934 0 0
8:56 pm 20:56 Clear 74 23.3 48 8.9 40 40 S 9 15 29.59 1002 10 16.0934 0 0
9:56 pm 21:56 Clear 72 22.2 47 8.3 41 41 S 9 15 29.6 1002 10 16.0934 0 0
10:56 pm 22:56 Clear 68 20 48 8.9 49 49 SSE 7 11 29.59 1002 10 16.0934 0 0
11:56 pm 23:56 Clear 66 18.9 50 10 56 56 SE 10 17 29.58 1002 10 16.0934 0 0

Powered by AerisWeather